Time;durP1;ratioP1;P1;durP2;ratioP2;P2;SDS_P1;SDS_P2;PMS_P1;PMS_P2;Temp;Humidity;BMP_temperature;BMP_pressure;BME280_temperature;BME280_humidity;BME280_pressure;Samples;Min_cycle;Max_cycle;Signal;HPM_P1;HPM_P2
2022/06/08 00:00:22;;;;;;;1.33;1.23;;;;;;;20.09;60.81;96520.25;10171930;29;20048;-82
2022/06/08 00:05:43;;;;;;;1.40;1.30;;;;;;;20.09;60.73;96525.66;10168115;29;20055;-82
2022/06/08 00:11:03;;;;;;;1.40;1.30;;;;;;;20.08;60.70;96521.41;10171655;29;20054;-82
2022/06/08 00:16:23;;;;;;;1.80;1.30;;;;;;;20.07;60.68;96515.22;10149437;29;20559;-82
2022/06/08 00:21:43;;;;;;;1.38;1.27;;;;;;;20.07;60.67;96504.41;10171112;29;20621;-82
2022/06/08 00:27:02;;;;;;;1.40;1.30;;;;;;;20.07;60.53;96504.41;10171579;29;20058;-82
2022/06/08 00:32:22;;;;;;;1.23;1.15;;;;;;;20.07;60.47;96498.19;10184131;29;20127;-83
2022/06/08 00:37:42;;;;;;;1.10;1.10;;;;;;;20.05;60.38;96498.53;10183191;29;20423;-82
2022/06/08 00:43:01;;;;;;;2.03;1.13;;;;;;;20.05;60.50;96503.94;10167725;29;20059;-82
2022/06/08 00:48:22;;;;;;;1.98;1.30;;;;;;;20.05;60.50;96506.66;10161612;29;20058;-82
2022/06/08 00:53:52;;;;;;;1.15;1.00;;;;;;;20.03;60.15;96500.78;10180666;29;20052;-82
2022/06/08 00:59:12;;;;;;;1.60;1.15;;;;;;;20.03;60.28;96508.09;10174256;29;20111;-82
2022/06/08 01:04:32;;;;;;;1.10;1.10;;;;;;;20.02;60.25;96507.31;10166538;29;20059;-82
2022/06/08 01:09:52;;;;;;;1.50;1.10;;;;;;;20.01;60.17;96504.94;10154216;29;20056;-82
2022/06/08 01:15:18;;;;;;;1.30;1.20;;;;;;;20.00;60.22;96504.16;10179448;29;20485;-82
2022/06/08 01:20:54;;;;;;;1.55;1.30;;;;;;;20.01;60.06;96502.22;10181744;29;20056;-82
2022/06/08 01:26:21;;;;;;;1.30;1.20;;;;;;;20.00;60.02;96500.66;10172803;29;20048;-82
2022/06/08 01:31:58;;;;;;;1.00;1.00;;;;;;;20.00;59.95;96506.06;10176091;29;20059;-82
2022/06/08 01:37:36;;;;;;;1.30;1.20;;;;;;;19.99;59.94;96501.75;10172591;29;20485;-82
2022/06/08 01:43:23;;;;;;;1.10;1.00;;;;;;;19.99;59.92;96499.06;10182226;29;20889;-82
2022/06/08 01:49:01;;;;;;;2.13;1.13;;;;;;;19.98;59.96;96490.16;10184355;29;20062;-82
2022/06/08 01:54:30;;;;;;;1.60;1.20;;;;;;;19.97;59.94;96487.78;10170085;29;20048;-82
2022/06/08 02:00:07;;;;;;;1.02;1.02;;;;;;;19.98;59.92;96494.78;10152944;29;20048;-82
2022/06/08 02:05:59;;;;;;;1.83;1.10;;;;;;;19.96;59.86;96481.59;10183289;29;20052;-82
2022/06/08 02:11:25;;;;;;;1.10;1.10;;;;;;;19.95;59.89;96483.53;10156611;29;20555;-82
2022/06/08 02:16:50;;;;;;;0.90;0.90;;;;;;;19.95;59.81;96474.59;10162310;29;20056;-82
2022/06/08 02:22:45;;;;;;;1.00;1.00;;;;;;;19.94;59.81;96479.22;10170430;29;20108;-82
2022/06/08 02:28:11;;;;;;;1.63;1.20;;;;;;;19.93;59.87;96483.06;10143531;29;20060;-83
2022/06/08 02:39:28;;;;;;;1.10;1.00;;;;;;;19.93;59.80;96485.78;10177082;29;20504;-82
2022/06/08 02:44:54;;;;;;;1.08;0.98;;;;;;;19.92;59.82;96480.69;10158257;29;20060;-82
2022/06/08 02:50:17;;;;;;;1.38;0.93;;;;;;;19.92;59.75;96476.06;10189537;29;20056;-82
2022/06/08 02:55:45;;;;;;;1.05;1.05;;;;;;;19.91;59.71;96479.88;10175934;29;20048;-82
2022/06/08 03:01:13;;;;;;;1.25;1.00;;;;;;;19.91;59.72;96485.28;10181885;29;20060;-82
2022/06/08 03:06:39;;;;;;;1.13;0.90;;;;;;;19.91;59.68;96476.41;10177297;29;20060;-82
2022/06/08 03:12:08;;;;;;;1.10;1.10;;;;;;;19.90;59.47;96475.63;10173188;29;20532;-82
2022/06/08 03:17:32;;;;;;;1.77;1.00;;;;;;;19.90;59.52;96480.25;10182742;29;20070;-82
2022/06/08 03:22:52;;;;;;;1.10;1.00;;;;;;;19.90;59.42;96481.03;10161890;29;20058;-82
2022/06/08 03:28:14;;;;;;;1.00;1.00;;;;;;;19.89;59.54;96474.03;10175327;29;20056;-82
2022/06/08 03:33:34;;;;;;;1.02;1.02;;;;;;;19.89;59.47;96482.13;10160258;29;20048;-82
2022/06/08 03:38:55;;;;;;;0.98;0.98;;;;;;;19.87;59.52;96484.38;10168614;29;20048;-82
2022/06/08 03:44:15;;;;;;;1.70;0.95;;;;;;;19.87;59.52;96483.59;10177730;29;20060;-82
2022/06/08 03:49:34;;;;;;;0.93;0.93;;;;;;;19.86;59.42;96493.63;10171969;29;20103;-82
2022/06/08 03:54:58;;;;;;;1.20;1.10;;;;;;;19.87;59.41;96489.78;10189755;29;20115;-82
2022/06/08 04:00:23;;;;;;;0.88;0.88;;;;;;;19.86;59.38;96493.63;10171173;29;20054;-82
2022/06/08 04:05:51;;;;;;;1.08;1.00;;;;;;;19.86;59.32;96495.56;10151496;29;20060;-82
2022/06/08 04:11:17;;;;;;;1.55;1.15;;;;;;;19.85;59.40;96486.63;10169464;29;20052;-82
2022/06/08 04:16:36;;;;;;;1.08;1.00;;;;;;;19.84;59.50;96485.06;10159352;29;20531;-82
2022/06/08 04:22:01;;;;;;;2.50;1.00;;;;;;;19.85;59.50;96494.75;10168748;29;20051;-82
2022/06/08 04:27:22;;;;;;;2.03;0.90;;;;;;;19.84;59.46;96493.16;10182634;29;20124;-82
2022/06/08 04:32:41;;;;;;;1.10;1.10;;;;;;;19.84;59.43;96501.28;10169484;29;20059;-82
2022/06/08 04:38:02;;;;;;;1.50;0.90;;;;;;;19.82;59.44;96490.00;10185736;29;20385;-82
2022/06/08 04:43:22;;;;;;;11.07;1.75;;;;;;;19.83;59.33;96491.56;10170147;29;20060;-82
2022/06/08 04:48:49;;;;;;;1.60;0.90;;;;;;;19.84;59.35;96476.94;10192109;29;20052;-81
2022/06/08 04:54:11;;;;;;;1.25;1.05;;;;;;;19.84;59.50;96466.13;10167549;29;20056;-82
2022/06/08 04:59:34;;;;;;;2.15;1.10;;;;;;;19.86;59.87;96465.81;10166473;29;20052;-82
2022/06/08 05:05:04;;;;;;;1.65;1.00;;;;;;;19.88;59.97;96452.75;10180109;29;20511;-82
2022/06/08 05:10:27;;;;;;;1.35;1.10;;;;;;;19.88;59.75;96456.25;10169096;29;20496;-82
2022/06/08 05:15:49;;;;;;;1.92;1.45;;;;;;;19.80;59.02;96451.72;10168746;29;20124;-84
2022/06/08 05:21:08;;;;;;;5.18;2.13;;;;;;;19.65;58.63;96455.00;10177853;29;20040;-81
2022/06/08 05:26:28;;;;;;;11.07;3.80;;;;;;;19.62;58.83;96444.84;10188954;29;20056;-82
2022/06/08 05:31:50;;;;;;;10.82;3.38;;;;;;;19.67;59.12;96436.56;10154858;29;20048;-81
2022/06/08 05:37:10;;;;;;;15.88;4.70;;;;;;;19.72;59.04;96444.50;10180599;29;20075;-82
2022/06/08 05:42:30;;;;;;;12.93;4.47;;;;;;;19.76;59.08;96440.00;10172411;29;20079;-82
2022/06/08 05:47:51;;;;;;;11.32;3.78;;;;;;;19.77;59.12;96444.25;10166885;29;20536;-82
2022/06/08 05:53:14;;;;;;;9.73;3.42;;;;;;;19.77;59.15;96433.44;10172325;29;20071;-82
2022/06/08 05:58:34;;;;;;;6.45;3.10;;;;;;;19.77;59.14;96430.75;10171541;29;20044;-82
2022/06/08 06:03:54;;;;;;;9.43;3.08;;;;;;;19.80;59.44;96434.69;10174878;29;20056;-82
2022/06/08 06:09:17;;;;;;;9.43;2.97;;;;;;;19.78;59.17;96429.63;10191907;29;20052;-82
2022/06/08 06:14:37;;;;;;;8.70;2.70;;;;;;;19.78;59.19;96431.53;10192951;29;20044;-82
2022/06/08 06:19:58;;;;;;;6.22;2.50;;;;;;;19.80;59.16;96442.78;10181103;29;20052;-82
2022/06/08 06:25:44;;;;;;;5.47;2.47;;;;;;;19.78;59.11;96443.16;10201038;29;20047;-82
2022/06/08 06:31:54;;;;;;;5.32;2.38;;;;;;;19.79;59.16;96439.31;10166638;29;20056;-82
2022/06/08 06:37:16;;;;;;;3.35;2.30;;;;;;;19.77;59.01;96446.97;10203282;29;20052;-82
2022/06/08 06:42:36;;;;;;;3.10;1.70;;;;;;;19.79;59.03;96439.31;10198944;29;20460;-82
2022/06/08 06:48:28;;;;;;;4.70;1.92;;;;;;;19.79;59.07;96452.03;10174328;29;20060;-82
2022/06/08 06:53:54;;;;;;;3.08;1.90;;;;;;;19.78;59.11;96453.97;10204060;29;20508;-82
2022/06/08 06:59:14;;;;;;;2.35;1.70;;;;;;;19.78;59.12;96453.97;10179234;29;20044;-81
2022/06/08 07:04:34;;;;;;;3.22;1.50;;;;;;;19.77;59.12;96449.66;10167034;29;20048;-82
2022/06/08 07:09:55;;;;;;;3.28;1.80;;;;;;;19.78;59.27;96453.97;10188572;29;20059;-82
2022/06/08 07:15:17;;;;;;;4.18;1.60;;;;;;;19.78;59.49;96442.34;10193941;29;20064;-81
2022/06/08 07:20:36;;;;;;;2.65;1.50;;;;;;;19.78;59.31;96437.75;10174070;29;20048;-81
2022/06/08 07:25:56;;;;;;;2.97;1.48;;;;;;;19.79;59.26;96442.00;10178651;29;20099;-81
2022/06/08 07:31:15;;;;;;;2.75;1.55;;;;;;;19.80;59.57;96437.38;10171871;29;20052;-82
2022/06/08 07:36:35;;;;;;;3.30;1.83;;;;;;;19.80;59.69;96429.28;10177465;29;20056;-82
2022/06/08 07:41:55;;;;;;;3.00;1.80;;;;;;;19.79;59.76;96420.38;10182137;29;20055;-82
2022/06/08 07:47:15;;;;;;;3.47;1.90;;;;;;;19.79;59.76;96417.69;10190869;29;20264;-82
2022/06/08 07:52:34;;;;;;;1.83;1.30;;;;;;;19.80;60.08;96413.06;10189913;29;20804;-82
2022/06/08 07:57:53;;;;;;;2.05;1.33;;;;;;;19.79;60.01;96404.19;10175192;29;20063;-82
2022/06/08 08:03:15;;;;;;;3.60;1.50;;;;;;;19.79;59.97;96406.09;10194404;29;20048;-82
2022/06/08 08:08:36;;;;;;;1.50;1.40;;;;;;;19.79;59.93;96409.59;10177113;29;20060;-81
2022/06/08 08:13:56;;;;;;;2.08;1.52;;;;;;;19.79;59.85;96412.28;10189374;29;20052;-81
2022/06/08 08:19:18;;;;;;;1.50;1.38;;;;;;;19.80;59.88;96404.97;10190805;29;20149;-81
2022/06/08 08:24:38;;;;;;;2.30;1.40;;;;;;;19.80;60.09;96396.84;10175887;29;20439;-81
2022/06/08 08:29:57;;;;;;;1.73;1.30;;;;;;;19.81;60.11;96398.44;10195023;29;20078;-81
2022/06/08 08:35:18;;;;;;;2.70;1.20;;;;;;;19.80;60.08;96392.25;10174887;29;20044;-81
2022/06/08 08:40:51;;;;;;;1.10;1.00;;;;;;;19.81;60.05;96391.09;10178740;29;20059;-81
2022/06/08 08:46:26;;;;;;;1.45;1.35;;;;;;;19.80;60.11;96396.84;10183373;29;20142;-81
2022/06/08 08:51:52;;;;;;;2.15;1.50;;;;;;;19.79;60.10;96390.66;10176681;29;20052;-82
2022/06/08 08:57:11;;;;;;;1.65;1.40;;;;;;;19.80;60.05;96399.56;10173588;29;20486;-82
2022/06/08 09:08:10;;;;;;;1.38;1.27;;;;;;;19.78;60.00;96383.69;10167998;29;20060;-81
2022/06/08 09:13:37;;;;;;;1.38;1.27;;;;;;;19.79;60.05;96387.97;10160807;29;20059;-82
2022/06/08 09:18:57;;;;;;;1.83;1.30;;;;;;;19.79;60.03;96376.38;10160602;29;20059;-82
2022/06/08 09:24:40;;;;;;;2.55;1.30;;;;;;;19.78;59.92;96374.78;10174973;29;20393;-82
2022/06/08 09:30:12;;;;;;;1.40;1.30;;;;;;;19.78;59.98;96377.47;10172889;29;20091;-82
2022/06/08 09:35:37;;;;;;;1.88;1.20;;;;;;;19.78;59.92;96380.19;10168428;29;20060;-82
2022/06/08 09:41:20;;;;;;;1.10;1.10;;;;;;;19.78;59.87;96372.88;10176078;29;20492;-82
2022/06/08 09:52:34;;;;;;;1.65;1.30;;;;;;;19.77;59.64;96365.88;10205156;29;20052;-82
2022/06/08 09:58:05;;;;;;;1.30;1.00;;;;;;;19.77;59.52;96359.69;10195790;29;20115;-82
2022/06/08 10:03:49;;;;;;;1.30;1.20;;;;;;;19.77;59.55;96360.47;10182439;29;20444;-82
2022/06/08 10:09:18;;;;;;;1.15;1.00;;;;;;;19.77;59.43;96348.88;10176243;29;20060;-83
2022/06/08 10:14:44;;;;;;;1.25;1.08;;;;;;;19.77;59.32;96346.19;10169636;29;20044;-82
2022/06/08 10:20:14;;;;;;;2.10;1.10;;;;;;;19.77;59.58;96344.25;10159829;29;20060;-82
2022/06/08 10:25:42;;;;;;;1.13;1.08;;;;;;;19.77;59.61;96335.38;10163100;29;20123;-83
2022/06/08 10:31:12;;;;;;;2.17;1.27;;;;;;;19.79;59.50;96335.81;10176402;29;20059;-82
2022/06/08 10:36:33;;;;;;;1.63;1.15;;;;;;;19.79;59.48;96335.81;10187602;29;20051;-82
2022/06/08 10:47:57;;;;;;;0.85;0.85;;;;;;;19.77;59.49;96322.63;10174247;29;20048;-82
2022/06/08 10:59:03;;;;;;;2.28;1.30;;;;;;;19.79;59.39;96309.56;10188148;29;20107;-82
2022/06/08 11:04:32;;;;;;;2.20;1.08;;;;;;;19.80;59.65;96299.53;10170793;29;20044;-83
2022/06/08 11:09:59;;;;;;;4.43;1.30;;;;;;;19.80;59.67;96294.94;10168813;29;20063;-82
2022/06/08 11:15:33;;;;;;;2.10;1.10;;;;;;;19.80;59.61;96288.72;10169834;29;20424;-82
2022/06/08 11:21:03;;;;;;;2.17;1.20;;;;;;;19.79;59.64;96279.84;10161859;29;20048;-83
2022/06/08 11:26:37;;;;;;;2.58;1.42;;;;;;;19.81;59.67;96276.81;10168140;29;20052;-82
2022/06/08 11:31:57;;;;;;;1.58;1.23;;;;;;;19.81;59.71;96268.69;10176476;29;20060;-82
2022/06/08 11:38:04;;;;;;;3.97;1.20;;;;;;;19.80;59.63;96272.50;10171482;29;20055;-82
2022/06/08 11:43:34;;;;;;;1.83;1.23;;;;;;;19.81;59.71;96258.66;10051183;29;20054;-83
2022/06/08 11:48:54;;;;;;;1.33;1.00;;;;;;;19.80;59.88;96256.28;10153623;29;20082;-82
2022/06/08 11:54:29;;;;;;;1.23;1.02;;;;;;;19.81;59.79;96258.66;10183519;29;20055;-83
2022/06/08 11:59:50;;;;;;;2.85;1.10;;;;;;;19.81;59.64;96255.97;10164061;29;20048;-83
2022/06/08 12:05:10;;;;;;;2.45;1.20;;;;;;;19.79;59.01;96255.53;10167689;29;20415;-83
2022/06/08 12:10:32;;;;;;;2.22;1.13;;;;;;;19.78;58.49;96247.75;10151002;29;20056;-83
2022/06/08 12:15:55;;;;;;;1.77;1.10;;;;;;;19.79;58.23;96252.81;10181534;29;20056;-83
2022/06/08 12:21:33;;;;;;;1.60;1.10;;;;;;;19.79;57.84;96238.53;10166444;29;20055;-82
2022/06/08 12:26:52;;;;;;;4.60;1.00;;;;;;;19.78;58.05;96236.94;10188318;29;20062;-82
2022/06/08 12:32:18;;;;;;;2.85;1.00;;;;;;;19.79;57.99;96239.31;10184054;29;20048;-82
2022/06/08 12:37:45;;;;;;;1.23;1.00;;;;;;;19.77;57.85;96233.44;10178581;29;20507;-82
2022/06/08 12:43:09;;;;;;;1.27;1.10;;;;;;;19.78;57.98;96231.53;10186498;29;20646;-82
2022/06/08 12:48:39;;;;;;;1.60;1.23;;;;;;;19.78;57.69;96232.34;10183104;29;20531;-82
2022/06/08 12:54:01;;;;;;;1.50;1.23;;;;;;;19.78;57.72;96224.22;10175203;29;20052;-83
2022/06/08 12:59:21;;;;;;;2.72;1.48;;;;;;;19.77;57.07;96214.53;10168342;29;20099;-82
2022/06/08 13:04:41;;;;;;;1.55;1.38;;;;;;;19.77;56.71;96214.53;10156668;29;20055;-82
2022/06/08 13:10:01;;;;;;;3.30;1.20;;;;;;;19.77;56.77;96208.34;10184920;29;20467;-82
2022/06/08 13:15:27;;;;;;;2.13;1.20;;;;;;;19.77;56.69;96211.81;10177927;29;20056;-82
2022/06/08 13:20:47;;;;;;;2.15;1.20;;;;;;;19.77;56.51;96202.94;10166858;29;20060;-83
2022/06/08 13:26:13;;;;;;;1.95;1.20;;;;;;;19.78;56.14;96199.91;10161774;29;20052;-82
2022/06/08 13:31:33;;;;;;;1.70;1.20;;;;;;;19.80;56.01;96200.34;10181039;29;20461;-82
2022/06/08 13:36:58;;;;;;;2.85;1.10;;;;;;;19.81;56.30;96176.81;10153946;29;20099;-82
2022/06/08 13:42:18;;;;;;;2.53;1.10;;;;;;;19.82;56.00;96178.38;10177984;29;20546;-82
2022/06/08 13:47:40;;;;;;;1.05;1.00;;;;;;;19.87;55.84;96164.63;10184262;29;20055;-82
2022/06/08 13:53:00;;;;;;;1.20;1.08;;;;;;;19.86;55.83;96171.94;10183707;29;20166;-82
2022/06/08 13:58:22;;;;;;;1.92;1.30;;;;;;;19.86;55.84;96163.06;10175921;29;20048;-82
2022/06/08 14:03:42;;;;;;;1.80;1.20;;;;;;;19.87;55.66;96160.00;10171372;29;20053;-82
2022/06/08 14:14:41;;;;;;;1.70;1.20;;;;;;;19.90;55.20;96143.09;10173258;29;20048;-82
2022/06/08 14:20:01;;;;;;;1.88;1.13;;;;;;;19.90;55.18;96145.81;10182959;29;20048;-82
2022/06/08 14:25:21;;;;;;;1.42;1.10;;;;;;;19.92;54.87;96135.44;10175403;29;20084;-82
2022/06/08 14:30:43;;;;;;;1.27;1.15;;;;;;;19.92;54.37;96135.44;10184101;29;20512;-82
2022/06/08 14:36:03;;;;;;;1.88;1.27;;;;;;;19.96;53.96;96132.84;10188447;29;20056;-82
2022/06/08 14:41:37;;;;;;;2.67;1.00;;;;;;;20.02;54.21;96122.59;10180864;29;20428;-81
2022/06/08 14:47:00;;;;;;;4.28;1.30;;;;;;;19.98;53.57;96117.06;10174944;29;20056;-82
2022/06/08 14:52:22;;;;;;;3.80;1.20;;;;;;;19.98;54.16;96111.66;10166956;29;20425;-82
2022/06/08 14:57:43;;;;;;;1.88;1.23;;;;;;;19.97;53.78;96104.66;10161653;29;20055;-82
2022/06/08 15:03:03;;;;;;;2.30;1.40;;;;;;;19.98;54.25;96105.47;10191597;29;20045;-82
2022/06/08 15:08:23;;;;;;;0.98;0.93;;;;;;;19.94;54.36;96105.38;10193209;29;20063;-83
2022/06/08 15:13:45;;;;;;;4.47;1.13;;;;;;;19.93;54.55;96112.69;10185857;29;20061;-83
2022/06/08 15:19:10;;;;;;;0.88;0.88;;;;;;;19.92;54.78;96102.22;10164345;29;20060;-82
2022/06/08 15:24:30;;;;;;;1.73;0.95;;;;;;;19.89;55.29;96105.59;10189934;29;20052;-82
2022/06/08 15:29:50;;;;;;;0.93;0.93;;;;;;;19.90;55.32;96099.84;10160734;29;20084;-82
2022/06/08 15:35:13;;;;;;;3.67;1.00;;;;;;;19.89;55.44;96100.97;10172167;29;20542;-82
2022/06/08 15:40:34;;;;;;;1.17;1.08;;;;;;;19.93;55.18;96082.16;10177001;29;20056;-82
2022/06/08 15:45:54;;;;;;;1.38;1.00;;;;;;;20.05;55.03;96078.63;10175161;29;20563;-82
2022/06/08 15:51:16;;;;;;;2.65;1.10;;;;;;;20.06;54.97;96069.38;10165684;29;20424;-82
2022/06/08 15:56:42;;;;;;;2.08;1.40;;;;;;;20.00;55.08;96066.13;10192619;29;20071;-82
2022/06/08 16:02:01;;;;;;;2.03;1.10;;;;;;;20.02;55.13;96069.28;10181313;29;20110;-82
2022/06/08 16:07:21;;;;;;;1.30;1.00;;;;;;;20.05;54.94;96067.81;10188889;29;20066;-82
2022/06/08 16:12:41;;;;;;;0.90;0.90;;;;;;;20.02;54.88;96063.09;10175091;29;20048;-82
2022/06/08 16:18:02;;;;;;;2.85;2.45;;;;;;;20.01;54.89;96056.88;10178986;29;20056;-82
2022/06/08 16:23:21;;;;;;;7.43;4.03;;;;;;;20.00;55.08;96060.72;10170242;29;20048;-82
2022/06/08 16:28:41;;;;;;;3.72;3.40;;;;;;;20.03;54.74;96064.66;10175215;29;20439;-82
2022/06/08 16:34:00;;;;;;;3.30;2.65;;;;;;;20.05;54.73;96059.69;10184030;29;20048;-82
2022/06/08 16:39:21;;;;;;;3.25;2.40;;;;;;;20.05;54.76;96063.19;10184584;29;20108;-82
2022/06/08 16:44:40;;;;;;;2.95;2.40;;;;;;;20.02;54.78;96055.78;10184364;29;20180;-82
2022/06/08 16:50:00;;;;;;;4.40;2.22;;;;;;;19.98;55.08;96057.59;10173837;29;20060;-82
2022/06/08 16:55:21;;;;;;;2.05;1.85;;;;;;;19.96;55.10;96054.44;10170291;29;20428;-82
2022/06/08 17:00:42;;;;;;;1.88;1.77;;;;;;;19.94;55.17;96046.69;10169943;29;20749;-82
2022/06/08 17:06:01;;;;;;;2.15;1.80;;;;;;;19.92;55.30;96048.94;10169700;29;20048;-83
2022/06/08 17:11:39;;;;;;;2.72;1.60;;;;;;;19.92;54.96;96040.06;10170414;29;20040;-81
2022/06/08 17:16:58;;;;;;;2.50;1.30;;;;;;;19.93;54.93;96047.81;10151720;29;20044;-82
2022/06/08 17:22:18;;;;;;;1.50;1.13;;;;;;;19.93;54.79;96038.91;10188163;29;20052;-82
2022/06/08 17:27:39;;;;;;;1.33;1.00;;;;;;;19.92;54.89;96040.06;10188335;29;20044;-82
2022/06/08 17:32:58;;;;;;;2.20;1.08;;;;;;;19.90;54.92;96051.19;10181378;29;20044;-82
2022/06/08 17:38:18;;;;;;;1.33;1.17;;;;;;;19.88;54.82;96045.34;10191015;29;20111;-82
2022/06/08 17:43:38;;;;;;;1.73;1.00;;;;;;;19.86;54.64;96044.13;10183492;29;20048;-82
2022/06/08 17:48:58;;;;;;;1.67;1.10;;;;;;;19.85;54.51;96056.06;10187451;29;20056;-82
2022/06/08 17:54:17;;;;;;;1.83;1.08;;;;;;;19.83;54.86;96056.41;10186379;29;20049;-82
2022/06/08 17:59:40;;;;;;;3.47;1.20;;;;;;;19.82;55.12;96048.66;10183423;29;20496;-82
2022/06/08 18:04:59;;;;;;;4.68;1.25;;;;;;;19.81;54.95;96042.44;10184903;29;20052;-82
2022/06/08 18:10:21;;;;;;;2.22;1.10;;;;;;;19.79;55.04;96041.22;10191055;29;20059;-82
2022/06/08 18:15:44;;;;;;;3.47;1.30;;;;;;;19.78;55.27;96047.75;10169651;29;20083;-82
2022/06/08 18:21:05;;;;;;;2.00;1.13;;;;;;;19.76;55.80;96048.13;10166877;29;20524;-82
2022/06/08 18:26:25;;;;;;;1.55;1.23;;;;;;;19.75;55.91;96057.34;10160085;29;20063;-82
2022/06/08 18:31:44;;;;;;;4.03;1.30;;;;;;;19.74;55.85;96063.88;10166874;29;20056;-82
2022/06/08 18:37:04;;;;;;;3.08;1.17;;;;;;;19.74;56.41;96063.88;10156251;29;20065;-83
2022/06/08 18:42:26;;;;;;;2.03;1.25;;;;;;;19.72;56.76;96060.75;10145078;29;20055;-83
2022/06/08 18:47:46;;;;;;;3.47;1.35;;;;;;;19.71;56.99;96067.22;10163202;29;20052;-83
2022/06/08 18:53:06;;;;;;;3.85;1.60;;;;;;;19.70;57.07;96066.44;10159568;29;20488;-82
2022/06/08 18:58:25;;;;;;;2.70;1.20;;;;;;;19.69;57.17;96064.09;10164760;29;20053;-82
2022/06/08 19:03:46;;;;;;;2.28;1.30;;;;;;;19.66;56.75;96059.34;10148551;29;20053;-82
2022/06/08 19:09:07;;;;;;;2.28;1.20;;;;;;;19.65;57.09;96077.50;10152593;29;20068;-82
2022/06/08 19:14:27;;;;;;;2.63;1.40;;;;;;;19.63;57.22;96073.56;10152501;29;20055;-82
2022/06/08 19:25:24;;;;;;;2.53;1.35;;;;;;;19.64;57.86;96086.75;10167459;29;20671;-82
2022/06/08 19:30:52;;;;;;;1.52;1.40;;;;;;;19.64;57.90;96078.63;10166816;29;20053;-82
2022/06/08 19:36:21;;;;;;;2.10;1.40;;;;;;;19.66;57.50;96081.78;10155926;29;20057;-82
2022/06/08 19:41:43;;;;;;;1.75;1.40;;;;;;;19.65;57.45;96082.88;10179927;29;20059;-82
2022/06/08 19:47:03;;;;;;;3.40;1.27;;;;;;;19.67;57.46;96079.84;10172781;29;20060;-82
2022/06/08 19:52:22;;;;;;;1.42;1.33;;;;;;;19.66;57.44;96081.78;10195991;29;20048;-82
2022/06/08 19:57:42;;;;;;;3.65;1.50;;;;;;;19.67;57.47;96079.84;10192741;29;20082;-81
2022/06/08 20:03:05;;;;;;;2.05;1.40;;;;;;;19.66;57.32;96067.47;10175317;29;20424;-81
2022/06/08 20:08:25;;;;;;;2.28;1.60;;;;;;;19.67;57.35;96074.44;10169170;29;20055;-81
2022/06/08 20:13:46;;;;;;;3.25;1.75;;;;;;;19.67;57.45;96069.03;10172201;29;20056;-82
2022/06/08 20:19:07;;;;;;;2.80;1.65;;;;;;;19.67;57.46;96074.44;10176010;29;20108;-81
2022/06/08 20:24:27;;;;;;;2.78;2.03;;;;;;;19.66;57.51;96073.66;10170583;29;20084;-82
2022/06/08 20:29:46;;;;;;;1.75;1.65;;;;;;;19.66;57.53;96073.66;10170770;29;20063;-81
2022/06/08 20:35:07;;;;;;;2.08;1.77;;;;;;;19.66;57.71;96075.56;10150306;29;20071;-81
2022/06/08 20:40:27;;;;;;;3.03;1.85;;;;;;;19.66;57.80;96072.88;10178341;29;20048;-81
2022/06/08 20:45:47;;;;;;;2.50;1.88;;;;;;;19.66;57.88;96080.97;10164938;29;20484;-83
2022/06/08 20:51:07;;;;;;;2.63;1.77;;;;;;;19.67;57.90;96069.03;10162920;29;20052;-82
2022/06/08 20:56:28;;;;;;;4.80;1.80;;;;;;;19.68;58.20;96079.53;10157923;29;20048;-82
2022/06/08 21:01:47;;;;;;;2.00;1.80;;;;;;;19.71;58.37;96086.16;10168035;29;20475;-82
2022/06/08 21:07:07;;;;;;;2.75;1.83;;;;;;;19.72;58.18;96079.66;10172899;29;20055;-82
2022/06/08 21:12:26;;;;;;;3.33;1.60;;;;;;;19.73;58.28;96076.59;10170050;29;20052;-82
2022/06/08 21:17:47;;;;;;;2.38;1.70;;;;;;;19.75;58.53;96071.63;10153286;29;20500;-82
2022/06/08 21:23:07;;;;;;;2.50;1.77;;;;;;;19.75;58.44;96063.53;10147846;29;20116;-82
2022/06/08 21:28:26;;;;;;;2.08;1.70;;;;;;;19.71;58.11;96062.63;10172692;29;20048;-82
2022/06/08 21:33:46;;;;;;;1.90;1.67;;;;;;;19.70;58.06;96058.34;10166828;29;20045;-82
2022/06/08 21:39:06;;;;;;;1.92;1.60;;;;;;;19.70;57.93;96065.66;10148030;29;20107;-82
2022/06/08 21:44:26;;;;;;;2.15;1.70;;;;;;;19.68;57.70;96052.50;10170753;29;20063;-82
2022/06/08 21:49:47;;;;;;;1.92;1.77;;;;;;;19.67;57.58;96060.94;10170101;29;20055;-82
2022/06/08 21:55:06;;;;;;;2.70;1.60;;;;;;;19.66;57.30;96048.53;10170576;29;20060;-82
2022/06/08 22:00:29;;;;;;;1.92;1.73;;;;;;;19.65;57.23;96049.69;10186222;29;20057;-82
2022/06/08 22:05:50;;;;;;;2.40;1.60;;;;;;;19.64;57.03;96048.09;10171408;29;20415;-82
2022/06/08 22:11:11;;;;;;;1.70;1.60;;;;;;;19.65;56.87;96047.00;10185304;29;20052;-82
2022/06/08 22:16:31;;;;;;;1.92;1.60;;;;;;;19.64;56.81;96048.09;10162414;29;20059;-82
2022/06/08 22:21:50;;;;;;;1.90;1.80;;;;;;;19.62;56.39;96043.06;10184006;29;20048;-82
2022/06/08 22:27:10;;;;;;;1.50;1.40;;;;;;;19.63;56.55;96041.13;10173471;29;20052;-82
2022/06/08 22:32:29;;;;;;;1.95;1.75;;;;;;;19.61;56.38;96035.28;10192546;29;20052;-82
2022/06/08 22:37:49;;;;;;;2.25;1.67;;;;;;;19.60;56.27;96039.09;10185636;29;20661;-82
2022/06/08 22:43:11;;;;;;;1.77;1.60;;;;;;;19.60;56.31;96025.59;10168341;29;20044;-82
2022/06/08 22:48:31;;;;;;;1.98;1.60;;;;;;;19.60;56.14;96028.31;10170879;29;20518;-82
2022/06/08 22:53:51;;;;;;;3.40;1.70;;;;;;;19.59;55.88;96018.63;10178949;29;20048;-82
2022/06/08 22:59:10;;;;;;;2.35;1.77;;;;;;;19.58;56.05;96012.44;10176764;29;20048;-83
2022/06/08 23:04:30;;;;;;;2.05;1.65;;;;;;;19.59;55.90;96013.25;10177219;29;20058;-81
2022/06/08 23:09:50;;;;;;;3.00;1.80;;;;;;;19.58;55.70;95998.13;10175718;29;20138;-82
2022/06/08 23:15:14;;;;;;;15.27;2.42;;;;;;;19.58;55.70;96007.03;10166840;29;20044;-82
2022/06/08 23:20:44;;;;;;;1.70;1.60;;;;;;;19.55;55.79;96013.91;10169182;29;20532;-82
2022/06/08 23:26:03;;;;;;;1.83;1.67;;;;;;;19.55;55.75;96022.00;10187344;29;20564;-82
2022/06/08 23:31:23;;;;;;;3.92;1.67;;;;;;;19.55;55.78;96027.41;10187345;29;20618;-82
2022/06/08 23:36:43;;;;;;;3.83;1.80;;;;;;;19.55;55.74;96035.53;10168556;29;20560;-82
2022/06/08 23:42:02;;;;;;;1.88;1.77;;;;;;;19.53;55.82;96029.69;10158901;29;20697;-82
2022/06/08 23:47:22;;;;;;;2.47;1.70;;;;;;;19.53;55.85;96024.28;10175762;29;20043;-81
2022/06/08 23:52:42;;;;;;;3.17;1.90;;;;;;;19.53;55.90;96023.50;10187376;29;20040;-82
2022/06/08 23:58:02;;;;;;;1.88;1.67;;;;;;;19.52;56.07;96006.50;10188032;29;20052;-82
